createdAt,value
2018-04-28T00:01:37.951Z,12.60
2018-04-28T00:04:04.218Z,12.50
2018-04-28T00:06:30.547Z,12.30
2018-04-28T00:08:56.787Z,12.10
2018-04-28T00:11:23.802Z,11.70
2018-04-28T00:13:50.110Z,11.70
2018-04-28T00:16:17.350Z,11.80
2018-04-28T00:18:45.108Z,11.70
2018-04-28T00:21:12.231Z,11.70
2018-04-28T00:23:40.360Z,11.80
2018-04-28T00:26:06.635Z,11.90
2018-04-28T00:28:36.934Z,11.90
2018-04-28T00:31:23.052Z,11.90
2018-04-28T00:33:54.392Z,11.90
2018-04-28T00:36:21.568Z,11.80
2018-04-28T00:39:06.804Z,11.80
2018-04-28T00:41:33.096Z,11.70
2018-04-28T00:44:16.496Z,11.60
2018-04-28T01:00:49.087Z,11.20
2018-04-28T01:06:28.229Z,11.10
2018-04-28T01:08:55.500Z,11.10
2018-04-28T01:11:24.622Z,11.10
2018-04-28T01:13:51.859Z,11.00
2018-04-28T01:16:18.130Z,10.90
2018-04-28T01:21:47.750Z,10.70
2018-04-28T01:24:23.753Z,10.80
2018-04-28T01:27:05.678Z,10.80
2018-04-28T01:29:32.111Z,10.70
2018-04-28T01:32:06.146Z,10.70
2018-04-28T01:34:36.122Z,10.70
2018-04-28T01:37:22.399Z,10.80
2018-04-28T01:39:48.962Z,10.80
2018-04-28T01:42:17.039Z,10.60
2018-04-28T01:44:56.340Z,10.60
2018-04-28T01:47:22.636Z,10.60
2018-04-28T01:49:56.946Z,10.50
2018-04-28T01:52:25.038Z,10.40
2018-04-28T01:54:51.318Z,10.40
2018-04-28T01:57:20.257Z,10.30
2018-04-28T01:59:58.888Z,10.30
2018-04-28T02:02:25.945Z,10.20
2018-04-28T02:04:55.992Z,10.10
2018-04-28T02:07:22.270Z,10.20
2018-04-28T02:09:51.528Z,10.20
2018-04-28T02:36:56.417Z,10.00
2018-04-28T02:39:33.037Z,10.00
2018-04-28T02:45:26.288Z,9.70
2018-04-28T02:47:58.304Z,9.70
2018-04-28T02:50:32.555Z,9.70
2018-04-28T02:53:11.151Z,9.60
2018-04-28T02:58:59.767Z,9.60
2018-04-28T03:01:41.774Z,9.60
2018-04-28T03:04:09.710Z,9.80
2018-04-28T03:06:47.971Z,9.90
2018-04-28T03:09:15.802Z,10.10
2018-04-28T03:11:43.907Z,10.10
2018-04-28T03:14:11.019Z,10.20
2018-04-28T03:16:40.142Z,10.30
2018-04-28T03:19:08.164Z,10.40
2018-04-28T03:21:35.367Z,10.40
2018-04-28T03:24:04.272Z,10.40
2018-04-28T03:26:32.306Z,10.40
2018-04-28T03:29:13.291Z,10.40
2018-04-28T03:31:39.544Z,10.50
2018-04-28T03:34:10.683Z,10.50
2018-04-28T03:36:36.943Z,10.60
2018-04-28T03:39:09.156Z,10.60
2018-04-28T03:41:56.061Z,10.60
2018-04-28T03:44:55.099Z,10.60
2018-04-28T03:50:22.767Z,10.20
2018-04-28T03:52:52.003Z,10.10
2018-04-28T03:55:18.283Z,10.10
2018-04-28T03:57:56.606Z,10.10
2018-04-28T04:00:35.072Z,10.10
2018-04-28T04:03:10.254Z,10.10
2018-04-28T04:05:42.363Z,10.00
2018-04-28T04:08:14.357Z,10.00
2018-04-28T04:10:48.339Z,9.90
2018-04-28T04:16:39.542Z,9.90
2018-04-28T04:19:05.776Z,9.90
2018-04-28T04:24:58.750Z,10.10
2018-04-28T04:27:30.701Z,10.10
2018-04-28T04:30:27.759Z,10.20
2018-04-28T04:32:54.034Z,10.30
2018-04-28T04:35:32.702Z,10.40
2018-04-28T04:37:58.976Z,10.40
2018-04-28T04:43:37.750Z,10.50
2018-04-28T04:46:06.717Z,10.60
2018-04-28T04:48:43.859Z,10.60
2018-04-28T04:51:18.918Z,10.50
2018-04-28T04:57:03.999Z,10.60
2018-04-28T04:59:31.999Z,10.60
2018-04-28T05:05:27.863Z,10.70
2018-04-28T05:08:04.922Z,10.80
2018-04-28T05:10:38.080Z,10.90
2018-04-28T05:13:13.258Z,10.90
2018-04-28T05:15:43.351Z,11.00
2018-04-28T05:18:21.692Z,11.10
2018-04-28T05:20:55.848Z,11.10
2018-04-28T05:47:58.096Z,11.80
2018-04-28T05:50:36.756Z,11.90
2018-04-28T05:56:26.843Z,12.10
2018-04-28T05:59:15.650Z,12.10
2018-04-28T06:01:57.853Z,12.10
2018-04-28T06:08:11.439Z,12.30
2018-04-28T06:10:49.882Z,12.40
2018-04-28T06:13:28.237Z,12.50
2018-04-28T06:16:21.543Z,12.60
2018-04-28T06:43:22.979Z,13.10
2018-04-28T06:45:49.262Z,13.10
2018-04-28T06:48:15.527Z,13.20
2018-04-28T06:50:41.822Z,13.20
2018-04-28T06:53:08.091Z,13.30
2018-04-28T06:55:34.386Z,13.30
2018-04-28T06:58:00.695Z,13.30
2018-04-28T07:00:27.219Z,13.40
2018-04-28T07:02:53.525Z,13.50
2018-04-28T07:05:19.849Z,13.60
2018-04-28T07:07:46.167Z,13.60
2018-04-28T07:10:19.287Z,13.60
2018-04-28T07:12:50.309Z,13.80
2018-04-28T07:15:17.259Z,13.70
2018-04-28T07:17:47.189Z,13.70
2018-04-28T07:20:16.379Z,13.80
2018-04-28T07:22:43.081Z,13.80
2018-04-28T07:25:10.405Z,13.80
2018-04-28T07:27:37.463Z,13.80
2018-04-28T07:30:04.439Z,13.90
2018-04-28T07:32:31.226Z,14.00
2018-04-28T07:34:58.935Z,14.10
2018-04-28T07:37:25.593Z,14.20
2018-04-28T07:39:51.908Z,14.20
2018-04-28T07:42:19.506Z,14.30
2018-04-28T07:44:49.738Z,14.20
2018-04-28T07:47:20.084Z,14.20
2018-04-28T07:49:46.888Z,14.20
2018-04-28T07:52:14.248Z,14.20
2018-04-28T07:54:43.924Z,14.30
2018-04-28T07:57:12.086Z,14.30
2018-04-28T08:02:20.523Z,14.20
2018-04-28T08:04:49.974Z,14.30
2018-04-28T08:07:19.739Z,14.50
2018-04-28T08:12:50.912Z,14.60
2018-04-28T08:15:21.168Z,14.70
2018-04-28T08:17:47.439Z,14.90
2018-04-28T08:20:17.788Z,15.00
2018-04-28T08:22:44.075Z,14.90
2018-04-28T08:25:20.179Z,14.90
2018-04-28T08:27:46.660Z,15.00
2018-04-28T08:30:16.071Z,14.80
2018-04-28T08:32:42.759Z,14.90
2018-04-28T08:35:09.060Z,14.90
2018-04-28T08:40:14.056Z,15.00
2018-04-28T08:42:44.619Z,15.20
2018-04-28T08:45:15.670Z,15.30
2018-04-28T08:47:45.365Z,15.20
2018-04-28T08:50:20.818Z,15.20
2018-04-28T08:52:49.330Z,15.30
2018-04-28T08:55:21.643Z,15.40
2018-04-28T08:57:51.185Z,15.40
2018-04-28T09:00:39.284Z,15.50
2018-04-28T09:03:06.384Z,15.50
2018-04-28T09:05:34.044Z,15.50
2018-04-28T09:08:00.910Z,15.50
2018-04-28T09:10:29.629Z,15.40
2018-04-28T09:12:56.426Z,15.40
2018-04-28T09:15:22.748Z,15.60
2018-04-28T09:17:49.127Z,15.60
2018-04-28T09:20:18.096Z,15.80
2018-04-28T09:22:44.531Z,16.00
2018-04-28T09:25:17.197Z,15.90
2018-04-28T09:27:43.646Z,16.00
2018-04-28T09:30:19.324Z,16.20
2018-04-28T09:32:45.649Z,16.30
2018-04-28T09:35:21.709Z,16.40
2018-04-28T09:37:52.041Z,16.60
2018-04-28T09:43:22.499Z,16.80
2018-04-28T09:45:50.502Z,16.80
2018-04-28T09:48:19.561Z,16.70
2018-04-28T09:50:45.767Z,16.70
2018-04-28T09:53:18.144Z,16.70
2018-04-28T09:55:50.592Z,16.70
2018-04-28T09:58:20.174Z,16.90
2018-04-28T10:00:51.036Z,17.00
2018-04-28T10:03:20.891Z,16.90
2018-04-28T10:05:47.213Z,16.90
2018-04-28T10:08:14.946Z,16.90
2018-04-28T10:10:44.459Z,16.90
2018-04-28T10:13:15.506Z,17.10
2018-04-28T10:15:50.037Z,17.20
2018-04-28T10:18:19.365Z,17.20
2018-04-28T10:20:49.232Z,17.20
2018-04-28T10:23:15.545Z,17.10
2018-04-28T10:25:49.956Z,17.30
2018-04-28T10:28:19.212Z,17.40
2018-04-28T10:30:53.175Z,17.90
2018-04-28T10:33:20.137Z,17.80
2018-04-28T10:35:52.340Z,17.80
2018-04-28T10:38:20.118Z,17.80
2018-04-28T10:40:50.377Z,17.80
2018-04-28T10:43:20.729Z,18.00
2018-04-28T10:45:50.029Z,17.90
2018-04-28T10:48:19.880Z,17.90
2018-04-28T10:50:53.403Z,18.00
2018-04-28T10:53:20.873Z,18.00
2018-04-28T10:55:51.113Z,18.30
2018-04-28T10:58:19.934Z,18.60
2018-04-28T11:00:50.043Z,18.60
2018-04-28T11:03:23.232Z,18.90
2018-04-28T11:05:50.619Z,19.10
2018-04-28T11:08:17.679Z,19.00
2018-04-28T11:10:44.159Z,19.00
2018-04-28T11:13:11.894Z,19.10
2018-04-28T11:15:38.228Z,19.10
2018-04-28T11:18:08.187Z,18.90
2018-04-28T11:20:36.418Z,19.10
2018-04-28T11:23:06.328Z,19.50
2018-04-28T11:25:36.903Z,19.40
2018-04-28T11:28:03.455Z,19.40
2018-04-28T11:30:32.056Z,19.50
2018-04-28T11:35:45.928Z,19.90
2018-04-28T11:40:50.014Z,19.30
2018-04-28T11:43:23.251Z,19.20
2018-04-28T11:45:50.751Z,19.20
2018-04-28T11:48:19.204Z,19.20
2018-04-28T11:53:22.755Z,19.20
2018-04-28T11:55:49.049Z,19.50
2018-04-28T11:58:16.919Z,20.20
2018-04-28T12:00:49.699Z,20.20
2018-04-28T12:03:19.872Z,20.40
2018-04-28T12:05:49.290Z,20.70
2018-04-28T12:08:15.687Z,20.80
2018-04-28T12:10:42.785Z,20.70
2018-04-28T12:13:21.624Z,21.70
2018-04-28T12:15:49.192Z,21.60
2018-04-28T12:18:20.090Z,21.70
2018-04-28T12:20:51.239Z,21.60
2018-04-28T12:23:20.937Z,21.60
2018-04-28T12:25:51.254Z,21.90
2018-04-28T12:28:21.616Z,21.90
2018-04-28T12:30:51.806Z,21.90
2018-04-28T12:33:20.090Z,21.80
2018-04-28T12:35:49.920Z,21.40
2018-04-28T12:38:16.207Z,21.30
2018-04-28T12:40:48.352Z,21.10
2018-04-28T12:43:19.961Z,20.60
2018-04-28T12:45:46.212Z,20.60
2018-04-28T12:51:07.161Z,20.50
2018-04-28T12:53:36.767Z,20.30
2018-04-28T12:56:06.837Z,20.30
2018-04-28T12:58:34.457Z,20.30
2018-04-28T13:01:02.681Z,20.20
2018-04-28T13:06:08.497Z,19.80
2018-04-28T13:08:39.484Z,19.70
2018-04-28T13:11:07.331Z,19.70
2018-04-28T13:13:37.910Z,19.90
2018-04-28T13:16:08.239Z,20.00
2018-04-28T13:18:37.699Z,20.10
2018-04-28T13:21:05.117Z,20.20
2018-04-28T13:23:32.269Z,20.20
2018-04-28T13:26:00.082Z,20.30
2018-04-28T13:31:00.290Z,20.10
2018-04-28T13:33:28.157Z,20.20
2018-04-28T13:35:55.386Z,20.30
2018-04-28T13:38:27.037Z,20.20
2018-04-28T13:40:53.292Z,20.10
2018-04-28T13:43:20.086Z,19.90
2018-04-28T13:45:47.939Z,19.90
2018-04-28T13:48:15.657Z,19.80
2018-04-28T13:50:44.343Z,19.70
2018-04-28T13:53:20.144Z,19.70
2018-04-28T13:55:47.842Z,19.70
2018-04-28T13:58:20.598Z,19.80
2018-04-28T14:00:50.193Z,19.80
2018-04-28T14:03:19.019Z,19.70
2018-04-28T14:05:45.596Z,19.40
2018-04-28T14:08:14.725Z,19.50
2018-04-28T14:10:43.242Z,19.50
2018-04-28T14:13:09.736Z,19.60
2018-04-28T14:15:36.517Z,19.60
2018-04-28T14:18:03.920Z,19.60
2018-04-28T14:20:30.781Z,19.60
2018-04-28T14:22:57.936Z,19.70
2018-04-28T14:25:24.210Z,19.80
2018-04-28T14:27:50.678Z,19.60
2018-04-28T14:30:17.114Z,19.60
2018-04-28T14:32:44.468Z,19.70
2018-04-28T14:35:12.331Z,19.70
2018-04-28T14:37:39.467Z,19.60
2018-04-28T14:40:08.776Z,19.20
2018-04-28T14:42:39.771Z,19.20
2018-04-28T14:45:06.656Z,19.30
2018-04-28T14:47:33.150Z,19.40
2018-04-28T14:49:59.659Z,19.40
2018-04-28T14:52:26.449Z,19.30
2018-04-28T14:54:52.770Z,19.30
2018-04-28T14:57:19.847Z,19.10
2018-04-28T14:59:47.301Z,19.10
2018-04-28T15:02:14.245Z,19.10
2018-04-28T15:04:44.264Z,19.10
2018-04-28T15:07:11.651Z,18.80
2018-04-28T15:09:38.809Z,18.80
2018-04-28T15:12:06.670Z,18.70
2018-04-28T15:14:35.342Z,18.70
2018-04-28T15:17:02.104Z,18.80
2018-04-28T15:19:28.784Z,18.70
2018-04-28T15:21:55.581Z,18.70
2018-04-28T15:24:21.855Z,18.70
2018-04-28T15:26:51.401Z,18.70
2018-04-28T15:29:18.158Z,18.60
2018-04-28T15:31:52.545Z,18.60
2018-04-28T15:34:20.415Z,18.60
2018-04-28T15:36:50.447Z,18.60
2018-04-28T15:39:19.777Z,18.60
2018-04-28T15:41:46.278Z,18.40
2018-04-28T15:44:14.985Z,18.40
2018-04-28T15:46:41.927Z,18.50
2018-04-28T15:49:09.649Z,18.50
2018-04-28T15:51:36.079Z,18.40
2018-04-28T15:54:02.516Z,18.30
2018-04-28T15:56:29.345Z,18.40
2018-04-28T15:58:55.884Z,18.40
2018-04-28T16:01:22.206Z,18.50
2018-04-28T16:03:49.440Z,18.60
2018-04-28T16:06:17.018Z,18.60
2018-04-28T16:08:43.558Z,18.60
2018-04-28T16:11:10.225Z,18.60
2018-04-28T16:13:36.819Z,18.60
2018-04-28T16:16:03.408Z,18.60
2018-04-28T16:18:32.133Z,18.60
2018-04-28T16:20:59.096Z,18.60
2018-04-28T16:23:25.549Z,18.70
2018-04-28T16:25:51.875Z,18.80
2018-04-28T16:28:18.877Z,18.80
2018-04-28T16:30:49.332Z,18.80
2018-04-28T16:33:16.775Z,18.60
2018-04-28T16:35:43.730Z,18.60
2018-04-28T16:38:11.952Z,18.60
2018-04-28T16:40:38.371Z,18.50
2018-04-28T16:43:05.495Z,18.40
2018-04-28T16:45:33.285Z,18.30
2018-04-28T16:48:06.968Z,18.30
2018-04-28T16:50:37.874Z,18.20
2018-04-28T16:53:06.688Z,18.20
2018-04-28T16:55:33.508Z,18.10
2018-04-28T16:58:00.042Z,18.10
2018-04-28T17:00:26.741Z,18.00
2018-04-28T17:02:54.190Z,17.90
2018-04-28T17:05:20.525Z,18.00
2018-04-28T17:07:47.449Z,18.00
2018-04-28T17:10:15.278Z,17.90
2018-04-28T17:12:42.179Z,17.90
2018-04-28T17:15:09.628Z,17.90
2018-04-28T17:17:48.881Z,17.80
2018-04-28T17:20:15.310Z,17.80
2018-04-28T17:22:42.928Z,17.80
2018-04-28T17:25:10.483Z,17.80
2018-04-28T17:27:37.119Z,17.70
2018-04-28T17:30:03.957Z,17.70
2018-04-28T17:32:30.321Z,17.70
2018-04-28T17:34:58.081Z,17.70
2018-04-28T17:37:24.433Z,17.60
2018-04-28T17:39:50.695Z,17.40
2018-04-28T17:42:21.282Z,17.20
2018-04-28T17:44:49.938Z,17.20
2018-04-28T17:47:19.367Z,17.20
2018-04-28T17:49:47.252Z,17.30
2018-04-28T17:52:14.147Z,17.30
2018-04-28T17:54:41.073Z,17.20
2018-04-28T17:57:07.400Z,17.30
2018-04-28T17:59:35.320Z,17.20
2018-04-28T18:02:03.377Z,17.20
2018-04-28T18:04:31.290Z,17.10
2018-04-28T18:06:58.247Z,17.10
2018-04-28T18:09:25.691Z,17.00
2018-04-28T18:11:52.871Z,17.00
2018-04-28T18:14:19.495Z,17.00
2018-04-28T18:16:46.053Z,16.90
2018-04-28T18:19:13.734Z,16.90
2018-04-28T18:21:40.303Z,16.80
2018-04-28T18:24:07.409Z,16.80
2018-04-28T18:26:34.976Z,16.70
2018-04-28T18:29:03.150Z,16.70
2018-04-28T18:31:37.230Z,16.40
2018-04-28T18:34:08.043Z,16.30
2018-04-28T18:36:36.909Z,16.10
2018-04-28T18:39:05.218Z,16.00
2018-04-28T18:41:32.228Z,15.60
2018-04-28T18:44:02.952Z,15.20
2018-04-28T18:46:29.531Z,15.00
2018-04-28T18:48:56.984Z,14.90
2018-04-28T18:51:23.286Z,14.70
2018-04-28T18:53:49.772Z,14.70
2018-04-28T18:56:16.704Z,14.80
2018-04-28T18:58:43.901Z,15.00
2018-04-28T19:01:10.206Z,15.00
2018-04-28T19:03:36.647Z,14.90
2018-04-28T19:06:03.025Z,14.90
2018-04-28T19:08:31.489Z,14.60
2018-04-28T19:10:57.875Z,14.40
2018-04-28T19:13:24.276Z,14.30
2018-04-28T19:15:50.576Z,14.30
2018-04-28T19:18:17.063Z,14.10
2018-04-28T19:20:44.095Z,13.90
2018-04-28T19:23:10.353Z,13.90
2018-04-28T19:25:36.680Z,13.90
2018-04-28T19:28:03.020Z,13.80
2018-04-28T19:30:29.379Z,13.90
2018-04-28T19:32:55.720Z,13.90
2018-04-28T19:35:22.119Z,13.90
2018-04-28T19:37:48.524Z,13.80
2018-04-28T19:40:15.528Z,13.80
2018-04-28T19:42:42.298Z,13.70
2018-04-28T19:45:08.658Z,13.70
2018-04-28T19:47:36.179Z,13.70
2018-04-28T19:50:02.779Z,13.70
2018-04-28T19:52:29.418Z,13.80
2018-04-28T19:54:56.232Z,13.80
2018-04-28T19:57:23.282Z,13.80
2018-04-28T19:59:49.780Z,13.80
2018-04-28T20:02:16.189Z,13.80
2018-04-28T20:04:42.823Z,13.80
2018-04-28T20:07:20.436Z,13.80
2018-04-28T20:09:54.030Z,13.70
2018-04-28T20:12:20.243Z,13.60
2018-04-28T20:14:52.888Z,13.70
2018-04-28T20:17:20.338Z,13.70
2018-04-28T20:23:01.758Z,13.70
2018-04-28T20:25:28.681Z,13.70
2018-04-28T20:27:55.161Z,13.70
2018-04-28T20:32:59.908Z,13.70
2018-04-28T20:35:29.655Z,13.70
2018-04-28T20:37:56.713Z,13.70
2018-04-28T20:40:23.143Z,13.50
2018-04-28T20:42:50.238Z,13.40
2018-04-28T20:45:21.212Z,13.50
2018-04-28T20:47:50.345Z,13.50
2018-04-28T20:50:26.769Z,13.60
2018-04-28T20:52:53.123Z,13.70
2018-04-28T20:55:20.676Z,13.60
2018-04-28T20:57:51.096Z,13.60
2018-04-28T21:00:20.619Z,13.60
2018-04-28T21:02:50.886Z,13.50
2018-04-28T21:05:21.073Z,13.50
2018-04-28T21:07:50.327Z,13.60
2018-04-28T21:10:23.354Z,13.50
2018-04-28T21:12:51.239Z,13.50
2018-04-28T21:15:22.186Z,13.50
2018-04-28T21:17:54.260Z,13.50
2018-04-28T21:20:22.460Z,13.50
2018-04-28T21:22:50.442Z,13.50
2018-04-28T21:25:21.122Z,13.50
2018-04-28T21:27:51.004Z,13.50
2018-04-28T21:30:21.650Z,13.50
2018-04-28T21:32:47.962Z,13.30
2018-04-28T21:35:14.203Z,13.40
2018-04-28T21:37:44.734Z,13.40
2018-04-28T21:43:21.155Z,13.40
2018-04-28T21:45:50.942Z,13.40
2018-04-28T21:48:24.144Z,13.30
2018-04-28T21:50:50.441Z,13.30
2018-04-28T21:53:17.049Z,13.30
2018-04-28T21:55:50.816Z,13.30
2018-04-28T21:58:20.052Z,13.20
2018-04-28T22:00:49.151Z,13.30
2018-04-28T22:03:17.500Z,13.20
2018-04-28T22:05:50.158Z,13.10
2018-04-28T22:08:17.311Z,13.00
2018-04-28T22:10:47.425Z,13.00
2018-04-28T22:13:14.418Z,13.00
2018-04-28T22:15:41.290Z,13.00
2018-04-28T22:18:21.844Z,13.10
2018-04-28T22:20:51.308Z,13.10
2018-04-28T22:23:18.205Z,13.00
2018-04-28T22:25:44.647Z,13.00
2018-04-28T22:28:10.911Z,13.00
2018-04-28T22:30:37.993Z,12.90
2018-04-28T22:33:04.299Z,12.90
2018-04-28T22:35:31.882Z,12.80
2018-04-28T22:37:58.459Z,12.80
2018-04-28T22:40:24.793Z,12.90
2018-04-28T22:42:51.848Z,12.50
2018-04-28T22:45:18.123Z,12.50
2018-04-28T22:47:44.443Z,12.60
2018-04-28T22:50:10.788Z,12.60
2018-04-28T22:52:37.105Z,12.60
2018-04-28T22:55:03.443Z,12.60
2018-04-28T22:57:29.791Z,12.60
2018-04-28T22:59:56.126Z,12.60
2018-04-28T23:02:22.648Z,12.70
2018-04-28T23:04:48.958Z,12.70
2018-04-28T23:07:15.375Z,12.60
2018-04-28T23:09:42.644Z,12.40
2018-04-28T23:12:09.723Z,12.40
2018-04-28T23:14:36.020Z,12.40
2018-04-28T23:17:02.395Z,12.40
2018-04-28T23:19:28.775Z,12.40
2018-04-28T23:21:55.188Z,12.30
2018-04-28T23:24:21.443Z,12.30
2018-04-28T23:26:47.725Z,12.30
2018-04-28T23:29:14.061Z,12.30
2018-04-28T23:31:40.435Z,12.30
2018-04-28T23:34:07.216Z,12.30
2018-04-28T23:36:33.523Z,12.20
2018-04-28T23:38:59.816Z,12.20
2018-04-28T23:41:26.056Z,12.20
2018-04-28T23:43:52.604Z,12.00
2018-04-28T23:46:19.200Z,12.00
2018-04-28T23:48:45.520Z,11.80
2018-04-28T23:51:11.877Z,11.90
2018-04-28T23:53:38.238Z,11.90
2018-04-28T23:56:04.718Z,11.80
2018-04-28T23:58:31.098Z,11.70
